sensor_id;sensor_type;location;lat;lon;timestamp;P1;durP1;ratioP1;P2;durP2;ratioP2
5277;SDS011;2662;51.194;6.614;2024-03-23T00:55:06;2.90;;;1.80;;
5277;SDS011;2662;51.194;6.614;2024-03-23T00:57:33;3.70;;;1.70;;
5277;SDS011;2662;51.194;6.614;2024-03-23T01:00:00;2.03;;;1.30;;
5277;SDS011;2662;51.194;6.614;2024-03-23T01:02:26;5.73;;;1.80;;
5277;SDS011;2662;51.194;6.614;2024-03-23T01:04:53;9.30;;;3.17;;
5277;SDS011;2662;51.194;6.614;2024-03-23T01:07:19;5.30;;;2.03;;
5277;SDS011;2662;51.194;6.614;2024-03-23T01:09:46;4.53;;;1.20;;
5277;SDS011;2662;51.194;6.614;2024-03-23T01:12:14;2.60;;;1.10;;
5277;SDS011;2662;51.194;6.614;2024-03-23T01:14:41;5.13;;;0.63;;
5277;SDS011;2662;51.194;6.614;2024-03-23T01:17:07;2.30;;;0.97;;
5277;SDS011;2662;51.194;6.614;2024-03-23T01:19:34;0.87;;;0.77;;
5277;SDS011;2662;51.194;6.614;2024-03-23T01:22:00;1.03;;;0.90;;
5277;SDS011;2662;51.194;6.614;2024-03-23T01:24:26;1.43;;;1.03;;
5277;SDS011;2662;51.194;6.614;2024-03-23T01:26:52;3.43;;;0.63;;
5277;SDS011;2662;51.194;6.614;2024-03-23T01:29:21;1.53;;;0.70;;
5277;SDS011;2662;51.194;6.614;2024-03-23T01:31:47;1.50;;;0.77;;
5277;SDS011;2662;51.194;6.614;2024-03-23T01:34:13;4.73;;;1.57;;
5277;SDS011;2662;51.194;6.614;2024-03-23T01:36:39;3.73;;;0.90;;
5277;SDS011;2662;51.194;6.614;2024-03-23T01:39:06;0.70;;;0.70;;
5277;SDS011;2662;51.194;6.614;2024-03-23T01:41:34;1.20;;;1.10;;
5277;SDS011;2662;51.194;6.614;2024-03-23T01:44:01;2.30;;;1.17;;
5277;SDS011;2662;51.194;6.614;2024-03-23T01:46:32;4.60;;;1.13;;
5277;SDS011;2662;51.194;6.614;2024-03-23T01:48:59;1.87;;;0.77;;
5277;SDS011;2662;51.194;6.614;2024-03-23T01:51:26;3.80;;;1.30;;
5277;SDS011;2662;51.194;6.614;2024-03-23T01:53:54;0.70;;;0.70;;
5277;SDS011;2662;51.194;6.614;2024-03-23T01:56:23;0.60;;;0.50;;
5277;SDS011;2662;51.194;6.614;2024-03-23T01:58:50;0.57;;;0.57;;
5277;SDS011;2662;51.194;6.614;2024-03-23T02:01:16;2.60;;;1.13;;
5277;SDS011;2662;51.194;6.614;2024-03-23T02:03:46;0.80;;;0.80;;
5277;SDS011;2662;51.194;6.614;2024-03-23T02:06:11;3.47;;;0.80;;
5277;SDS011;2662;51.194;6.614;2024-03-23T02:08:38;1.80;;;0.77;;
5277;SDS011;2662;51.194;6.614;2024-03-23T02:11:05;0.80;;;0.57;;
5277;SDS011;2662;51.194;6.614;2024-03-23T02:13:32;1.37;;;0.70;;
5277;SDS011;2662;51.194;6.614;2024-03-23T02:15:58;2.53;;;0.70;;
5277;SDS011;2662;51.194;6.614;2024-03-23T02:18:25;0.80;;;0.80;;
5277;SDS011;2662;51.194;6.614;2024-03-23T02:20:53;2.47;;;1.03;;
5277;SDS011;2662;51.194;6.614;2024-03-23T02:23:21;0.60;;;0.60;;
5277;SDS011;2662;51.194;6.614;2024-03-23T02:25:47;2.00;;;0.70;;
5277;SDS011;2662;51.194;6.614;2024-03-23T02:28:14;1.20;;;0.63;;
5277;SDS011;2662;51.194;6.614;2024-03-23T02:30:40;1.13;;;0.77;;
5277;SDS011;2662;51.194;6.614;2024-03-23T02:33:07;1.03;;;0.60;;
5277;SDS011;2662;51.194;6.614;2024-03-23T02:35:32;1.30;;;0.97;;
5277;SDS011;2662;51.194;6.614;2024-03-23T02:37:59;2.40;;;0.90;;
5277;SDS011;2662;51.194;6.614;2024-03-23T02:40:27;0.87;;;0.87;;
5277;SDS011;2662;51.194;6.614;2024-03-23T02:42:54;2.83;;;0.93;;
5277;SDS011;2662;51.194;6.614;2024-03-23T02:45:20;1.63;;;0.50;;
5277;SDS011;2662;51.194;6.614;2024-03-23T02:47:47;1.30;;;0.97;;
5277;SDS011;2662;51.194;6.614;2024-03-23T02:50:16;1.20;;;0.70;;
5277;SDS011;2662;51.194;6.614;2024-03-23T02:52:44;2.70;;;0.70;;
5277;SDS011;2662;51.194;6.614;2024-03-23T02:55:10;4.80;;;0.73;;
5277;SDS011;2662;51.194;6.614;2024-03-23T02:57:38;3.60;;;1.07;;
5277;SDS011;2662;51.194;6.614;2024-03-23T03:00:05;8.23;;;0.80;;
5277;SDS011;2662;51.194;6.614;2024-03-23T03:02:33;1.80;;;0.73;;
5277;SDS011;2662;51.194;6.614;2024-03-23T03:04:59;3.03;;;0.90;;
5277;SDS011;2662;51.194;6.614;2024-03-23T03:07:26;2.10;;;0.93;;
5277;SDS011;2662;51.194;6.614;2024-03-23T03:09:52;1.07;;;0.60;;
5277;SDS011;2662;51.194;6.614;2024-03-23T03:12:19;1.03;;;0.70;;
5277;SDS011;2662;51.194;6.614;2024-03-23T03:14:46;1.80;;;0.77;;
5277;SDS011;2662;51.194;6.614;2024-03-23T03:17:13;0.73;;;0.73;;
5277;SDS011;2662;51.194;6.614;2024-03-23T03:19:40;1.00;;;0.90;;
5277;SDS011;2662;51.194;6.614;2024-03-23T03:22:07;1.73;;;0.83;;
5277;SDS011;2662;51.194;6.614;2024-03-23T03:24:33;1.87;;;0.80;;
5277;SDS011;2662;51.194;6.614;2024-03-23T03:27:00;2.30;;;0.87;;
5277;SDS011;2662;51.194;6.614;2024-03-23T03:29:28;4.87;;;0.70;;
5277;SDS011;2662;51.194;6.614;2024-03-23T03:32:02;3.60;;;0.93;;
5277;SDS011;2662;51.194;6.614;2024-03-23T03:34:28;4.03;;;0.70;;
5277;SDS011;2662;51.194;6.614;2024-03-23T03:36:56;0.90;;;0.60;;
5277;SDS011;2662;51.194;6.614;2024-03-23T03:39:22;1.53;;;0.70;;
5277;SDS011;2662;51.194;6.614;2024-03-23T03:41:49;4.50;;;1.00;;
5277;SDS011;2662;51.194;6.614;2024-03-23T03:44:15;1.23;;;0.90;;
5277;SDS011;2662;51.194;6.614;2024-03-23T03:46:42;8.57;;;1.30;;
5277;SDS011;2662;51.194;6.614;2024-03-23T03:49:10;2.67;;;0.80;;
5277;SDS011;2662;51.194;6.614;2024-03-23T03:51:37;0.90;;;0.80;;
5277;SDS011;2662;51.194;6.614;2024-03-23T03:54:03;2.47;;;0.97;;
5277;SDS011;2662;51.194;6.614;2024-03-23T03:56:30;1.27;;;0.80;;
5277;SDS011;2662;51.194;6.614;2024-03-23T03:58:56;1.90;;;1.13;;
5277;SDS011;2662;51.194;6.614;2024-03-23T04:01:23;3.23;;;1.00;;
5277;SDS011;2662;51.194;6.614;2024-03-23T04:03:48;0.70;;;0.67;;
5277;SDS011;2662;51.194;6.614;2024-03-23T04:06:19;1.10;;;0.97;;
5277;SDS011;2662;51.194;6.614;2024-03-23T04:08:45;1.20;;;0.70;;
5277;SDS011;2662;51.194;6.614;2024-03-23T04:11:12;9.30;;;0.80;;
5277;SDS011;2662;51.194;6.614;2024-03-23T04:13:38;3.30;;;0.60;;
5277;SDS011;2662;51.194;6.614;2024-03-23T04:16:06;1.17;;;0.80;;
5277;SDS011;2662;51.194;6.614;2024-03-23T04:18:32;1.23;;;0.63;;
5277;SDS011;2662;51.194;6.614;2024-03-23T04:21:00;3.23;;;1.43;;
5277;SDS011;2662;51.194;6.614;2024-03-23T04:23:27;3.70;;;0.90;;
5277;SDS011;2662;51.194;6.614;2024-03-23T04:25:54;1.93;;;0.90;;
5277;SDS011;2662;51.194;6.614;2024-03-23T04:28:20;3.80;;;0.90;;
5277;SDS011;2662;51.194;6.614;2024-03-23T04:30:47;4.23;;;1.10;;
5277;SDS011;2662;51.194;6.614;2024-03-23T04:33:14;0.70;;;0.70;;
5277;SDS011;2662;51.194;6.614;2024-03-23T04:35:41;0.80;;;0.80;;
5277;SDS011;2662;51.194;6.614;2024-03-23T04:38:07;3.77;;;1.30;;
5277;SDS011;2662;51.194;6.614;2024-03-23T04:40:35;2.77;;;1.07;;
5277;SDS011;2662;51.194;6.614;2024-03-23T04:43:02;7.57;;;1.30;;
5277;SDS011;2662;51.194;6.614;2024-03-23T04:45:29;5.97;;;1.03;;
5277;SDS011;2662;51.194;6.614;2024-03-23T04:47:56;1.90;;;0.83;;
5277;SDS011;2662;51.194;6.614;2024-03-23T04:50:23;1.57;;;0.80;;
5277;SDS011;2662;51.194;6.614;2024-03-23T04:52:50;1.83;;;1.03;;
5277;SDS011;2662;51.194;6.614;2024-03-23T04:55:16;2.00;;;1.13;;
5277;SDS011;2662;51.194;6.614;2024-03-23T04:57:45;3.17;;;0.90;;
5277;SDS011;2662;51.194;6.614;2024-03-23T05:00:11;2.87;;;1.30;;
5277;SDS011;2662;51.194;6.614;2024-03-23T05:02:45;1.77;;;1.10;;
5277;SDS011;2662;51.194;6.614;2024-03-23T05:05:12;1.57;;;0.73;;
5277;SDS011;2662;51.194;6.614;2024-03-23T05:07:39;2.13;;;1.00;;
5277;SDS011;2662;51.194;6.614;2024-03-23T05:10:07;3.13;;;1.13;;
5277;SDS011;2662;51.194;6.614;2024-03-23T05:12:36;3.40;;;1.10;;
5277;SDS011;2662;51.194;6.614;2024-03-23T05:15:05;1.30;;;1.20;;
5277;SDS011;2662;51.194;6.614;2024-03-23T05:17:32;4.00;;;1.40;;
5277;SDS011;2662;51.194;6.614;2024-03-23T05:19:59;7.20;;;2.03;;
5277;SDS011;2662;51.194;6.614;2024-03-23T05:22:25;9.17;;;1.10;;
5277;SDS011;2662;51.194;6.614;2024-03-23T05:24:53;3.70;;;1.87;;
5277;SDS011;2662;51.194;6.614;2024-03-23T05:27:19;7.03;;;1.60;;
5277;SDS011;2662;51.194;6.614;2024-03-23T05:29:47;3.03;;;1.33;;
5277;SDS011;2662;51.194;6.614;2024-03-23T05:32:14;3.43;;;1.60;;
5277;SDS011;2662;51.194;6.614;2024-03-23T05:34:41;2.30;;;1.30;;
5277;SDS011;2662;51.194;6.614;2024-03-23T05:37:09;3.73;;;1.70;;
5277;SDS011;2662;51.194;6.614;2024-03-23T05:39:37;3.40;;;1.40;;
5277;SDS011;2662;51.194;6.614;2024-03-23T05:42:03;5.07;;;1.50;;
5277;SDS011;2662;51.194;6.614;2024-03-23T05:44:31;6.07;;;1.80;;
5277;SDS011;2662;51.194;6.614;2024-03-23T05:46:57;3.73;;;1.50;;
5277;SDS011;2662;51.194;6.614;2024-03-23T05:49:25;3.23;;;1.30;;
5277;SDS011;2662;51.194;6.614;2024-03-23T05:51:51;10.73;;;1.27;;
5277;SDS011;2662;51.194;6.614;2024-03-23T05:54:20;3.90;;;1.50;;
5277;SDS011;2662;51.194;6.614;2024-03-23T05:56:46;1.67;;;1.20;;
5277;SDS011;2662;51.194;6.614;2024-03-23T05:59:13;3.20;;;1.27;;
5277;SDS011;2662;51.194;6.614;2024-03-23T06:01:39;3.83;;;2.13;;
5277;SDS011;2662;51.194;6.614;2024-03-23T06:04:06;4.53;;;1.50;;
5277;SDS011;2662;51.194;6.614;2024-03-23T06:06:35;1.60;;;1.50;;
5277;SDS011;2662;51.194;6.614;2024-03-23T06:09:02;4.00;;;1.97;;
5277;SDS011;2662;51.194;6.614;2024-03-23T06:11:28;2.60;;;1.20;;
5277;SDS011;2662;51.194;6.614;2024-03-23T06:13:55;2.13;;;1.10;;
5277;SDS011;2662;51.194;6.614;2024-03-23T06:16:21;11.80;;;1.50;;
5277;SDS011;2662;51.194;6.614;2024-03-23T06:18:49;2.60;;;1.70;;
5277;SDS011;2662;51.194;6.614;2024-03-23T06:21:15;1.87;;;1.63;;
5277;SDS011;2662;51.194;6.614;2024-03-23T06:23:44;3.87;;;1.67;;
5277;SDS011;2662;51.194;6.614;2024-03-23T06:26:16;2.07;;;1.83;;
5277;SDS011;2662;51.194;6.614;2024-03-23T06:28:43;4.90;;;1.60;;
5277;SDS011;2662;51.194;6.614;2024-03-23T06:31:09;2.87;;;2.03;;
5277;SDS011;2662;51.194;6.614;2024-03-23T06:33:36;4.03;;;2.07;;
5277;SDS011;2662;51.194;6.614;2024-03-23T06:36:03;7.77;;;1.73;;
5277;SDS011;2662;51.194;6.614;2024-03-23T06:38:31;5.73;;;2.80;;
5277;SDS011;2662;51.194;6.614;2024-03-23T06:40:58;12.67;;;2.70;;
5277;SDS011;2662;51.194;6.614;2024-03-23T06:43:25;8.70;;;2.57;;
5277;SDS011;2662;51.194;6.614;2024-03-23T06:45:54;11.70;;;2.70;;
5277;SDS011;2662;51.194;6.614;2024-03-23T06:48:21;8.70;;;2.63;;
5277;SDS011;2662;51.194;6.614;2024-03-23T06:50:48;4.67;;;1.60;;
5277;SDS011;2662;51.194;6.614;2024-03-23T06:53:16;6.30;;;2.20;;
5277;SDS011;2662;51.194;6.614;2024-03-23T06:55:43;8.33;;;1.90;;
5277;SDS011;2662;51.194;6.614;2024-03-23T06:58:20;6.97;;;2.73;;
5277;SDS011;2662;51.194;6.614;2024-03-23T07:00:47;5.73;;;1.50;;
5277;SDS011;2662;51.194;6.614;2024-03-23T07:03:15;2.60;;;1.53;;
5277;SDS011;2662;51.194;6.614;2024-03-23T07:05:41;6.70;;;1.73;;
5277;SDS011;2662;51.194;6.614;2024-03-23T07:08:08;6.17;;;1.63;;
5277;SDS011;2662;51.194;6.614;2024-03-23T07:10:34;2.40;;;1.97;;
5277;SDS011;2662;51.194;6.614;2024-03-23T07:13:01;6.40;;;1.80;;
5277;SDS011;2662;51.194;6.614;2024-03-23T07:15:29;3.03;;;1.40;;
5277;SDS011;2662;51.194;6.614;2024-03-23T07:17:56;4.20;;;1.93;;
5277;SDS011;2662;51.194;6.614;2024-03-23T07:20:22;2.60;;;1.40;;
5277;SDS011;2662;51.194;6.614;2024-03-23T07:22:49;7.80;;;1.70;;
5277;SDS011;2662;51.194;6.614;2024-03-23T07:25:16;5.67;;;1.47;;
5277;SDS011;2662;51.194;6.614;2024-03-23T07:27:43;8.83;;;2.07;;
5277;SDS011;2662;51.194;6.614;2024-03-23T07:30:09;6.57;;;2.20;;
5277;SDS011;2662;51.194;6.614;2024-03-23T07:32:38;3.97;;;1.87;;
5277;SDS011;2662;51.194;6.614;2024-03-23T07:35:04;10.57;;;1.97;;
5277;SDS011;2662;51.194;6.614;2024-03-23T07:37:32;3.70;;;1.90;;
5277;SDS011;2662;51.194;6.614;2024-03-23T07:39:58;2.97;;;1.80;;
5277;SDS011;2662;51.194;6.614;2024-03-23T07:42:27;5.03;;;1.80;;
5277;SDS011;2662;51.194;6.614;2024-03-23T07:44:54;3.50;;;2.10;;
5277;SDS011;2662;51.194;6.614;2024-03-23T07:47:22;4.13;;;2.20;;
5277;SDS011;2662;51.194;6.614;2024-03-23T07:49:50;14.47;;;2.53;;
5277;SDS011;2662;51.194;6.614;2024-03-23T07:52:16;3.93;;;1.80;;
5277;SDS011;2662;51.194;6.614;2024-03-23T07:54:42;7.40;;;2.20;;
5277;SDS011;2662;51.194;6.614;2024-03-23T07:57:09;3.30;;;1.93;;
5277;SDS011;2662;51.194;6.614;2024-03-23T07:59:35;4.53;;;2.37;;
5277;SDS011;2662;51.194;6.614;2024-03-23T08:02:02;1.57;;;1.30;;
5277;SDS011;2662;51.194;6.614;2024-03-23T08:04:29;3.73;;;1.87;;
5277;SDS011;2662;51.194;6.614;2024-03-23T08:06:58;7.17;;;1.90;;
5277;SDS011;2662;51.194;6.614;2024-03-23T08:09:24;2.63;;;1.57;;
5277;SDS011;2662;51.194;6.614;2024-03-23T08:11:51;5.30;;;1.70;;
5277;SDS011;2662;51.194;6.614;2024-03-23T08:14:17;7.13;;;1.30;;
5277;SDS011;2662;51.194;6.614;2024-03-23T08:16:45;7.93;;;1.47;;
5277;SDS011;2662;51.194;6.614;2024-03-23T08:19:14;6.90;;;1.50;;
5277;SDS011;2662;51.194;6.614;2024-03-23T08:21:41;3.90;;;1.80;;
5277;SDS011;2662;51.194;6.614;2024-03-23T08:24:09;4.33;;;1.40;;
5277;SDS011;2662;51.194;6.614;2024-03-23T08:26:36;6.33;;;1.37;;
5277;SDS011;2662;51.194;6.614;2024-03-23T08:29:03;4.70;;;1.40;;
5277;SDS011;2662;51.194;6.614;2024-03-23T08:31:30;9.20;;;2.53;;
5277;SDS011;2662;51.194;6.614;2024-03-23T08:33:58;5.60;;;1.33;;
5277;SDS011;2662;51.194;6.614;2024-03-23T08:36:25;2.70;;;1.10;;
5277;SDS011;2662;51.194;6.614;2024-03-23T08:38:51;2.80;;;1.13;;
5277;SDS011;2662;51.194;6.614;2024-03-23T08:41:21;3.73;;;1.47;;
5277;SDS011;2662;51.194;6.614;2024-03-23T08:43:47;4.37;;;1.40;;
5277;SDS011;2662;51.194;6.614;2024-03-23T08:46:15;5.13;;;1.10;;
5277;SDS011;2662;51.194;6.614;2024-03-23T08:48:42;6.30;;;1.60;;
5277;SDS011;2662;51.194;6.614;2024-03-23T08:51:10;6.80;;;1.10;;
5277;SDS011;2662;51.194;6.614;2024-03-23T08:53:38;3.27;;;1.23;;
5277;SDS011;2662;51.194;6.614;2024-03-23T08:56:06;2.03;;;1.20;;
5277;SDS011;2662;51.194;6.614;2024-03-23T08:58:35;3.90;;;1.80;;
5277;SDS011;2662;51.194;6.614;2024-03-23T09:01:04;10.37;;;1.63;;
5277;SDS011;2662;51.194;6.614;2024-03-23T09:03:33;2.93;;;1.30;;
5277;SDS011;2662;51.194;6.614;2024-03-23T09:06:00;5.20;;;1.93;;
5277;SDS011;2662;51.194;6.614;2024-03-23T09:08:28;5.53;;;1.53;;
5277;SDS011;2662;51.194;6.614;2024-03-23T09:10:56;1.83;;;1.60;;
5277;SDS011;2662;51.194;6.614;2024-03-23T09:13:22;2.80;;;1.80;;
5277;SDS011;2662;51.194;6.614;2024-03-23T09:15:53;3.33;;;1.67;;
5277;SDS011;2662;51.194;6.614;2024-03-23T09:18:22;4.70;;;1.70;;
5277;SDS011;2662;51.194;6.614;2024-03-23T09:20:49;3.40;;;1.90;;
5277;SDS011;2662;51.194;6.614;2024-03-23T09:23:15;4.60;;;2.03;;
5277;SDS011;2662;51.194;6.614;2024-03-23T09:25:42;5.23;;;2.03;;
5277;SDS011;2662;51.194;6.614;2024-03-23T09:28:10;3.70;;;1.53;;
5277;SDS011;2662;51.194;6.614;2024-03-23T09:30:38;3.97;;;1.70;;
5277;SDS011;2662;51.194;6.614;2024-03-23T09:33:08;3.10;;;1.27;;
5277;SDS011;2662;51.194;6.614;2024-03-23T09:35:37;2.47;;;1.40;;
5277;SDS011;2662;51.194;6.614;2024-03-23T09:38:03;6.87;;;1.70;;
5277;SDS011;2662;51.194;6.614;2024-03-23T09:40:40;2.70;;;1.30;;
5277;SDS011;2662;51.194;6.614;2024-03-23T09:43:07;2.07;;;1.43;;
5277;SDS011;2662;51.194;6.614;2024-03-23T09:45:35;3.27;;;1.20;;
5277;SDS011;2662;51.194;6.614;2024-03-23T09:48:05;3.90;;;1.53;;
5277;SDS011;2662;51.194;6.614;2024-03-23T09:50:37;4.30;;;1.43;;
5277;SDS011;2662;51.194;6.614;2024-03-23T09:53:03;3.30;;;1.03;;
5277;SDS011;2662;51.194;6.614;2024-03-23T09:55:32;1.00;;;1.00;;
5277;SDS011;2662;51.194;6.614;2024-03-23T09:58:00;6.43;;;1.73;;
5277;SDS011;2662;51.194;6.614;2024-03-23T10:00:29;2.30;;;1.30;;
5277;SDS011;2662;51.194;6.614;2024-03-23T10:02:56;2.33;;;1.30;;
5277;SDS011;2662;51.194;6.614;2024-03-23T10:05:23;2.13;;;1.10;;
5277;SDS011;2662;51.194;6.614;2024-03-23T10:07:51;1.23;;;0.87;;
5277;SDS011;2662;51.194;6.614;2024-03-23T10:10:19;8.07;;;1.50;;
5277;SDS011;2662;51.194;6.614;2024-03-23T10:12:47;1.20;;;0.90;;
5277;SDS011;2662;51.194;6.614;2024-03-23T10:15:19;6.63;;;1.13;;
5277;SDS011;2662;51.194;6.614;2024-03-23T10:17:47;3.80;;;1.37;;
5277;SDS011;2662;51.194;6.614;2024-03-23T10:20:13;5.73;;;1.47;;
5277;SDS011;2662;51.194;6.614;2024-03-23T10:22:45;2.57;;;0.60;;
5277;SDS011;2662;51.194;6.614;2024-03-23T10:25:13;2.70;;;0.70;;
5277;SDS011;2662;51.194;6.614;2024-03-23T10:27:40;2.30;;;0.80;;
5277;SDS011;2662;51.194;6.614;2024-03-23T10:30:09;1.33;;;0.70;;
5277;SDS011;2662;51.194;6.614;2024-03-23T10:32:37;2.60;;;0.73;;
5277;SDS011;2662;51.194;6.614;2024-03-23T10:35:16;2.00;;;1.10;;
5277;SDS011;2662;51.194;6.614;2024-03-23T10:37:46;4.03;;;1.33;;
5277;SDS011;2662;51.194;6.614;2024-03-23T10:40:16;2.03;;;0.60;;
5277;SDS011;2662;51.194;6.614;2024-03-23T10:42:44;0.53;;;0.50;;
5277;SDS011;2662;51.194;6.614;2024-03-23T10:45:10;0.60;;;0.60;;
5277;SDS011;2662;51.194;6.614;2024-03-23T10:47:40;2.10;;;1.03;;
5277;SDS011;2662;51.194;6.614;2024-03-23T10:50:08;0.40;;;0.40;;
5277;SDS011;2662;51.194;6.614;2024-03-23T10:52:35;0.50;;;0.50;;
5277;SDS011;2662;51.194;6.614;2024-03-23T10:55:02;1.73;;;0.70;;
5277;SDS011;2662;51.194;6.614;2024-03-23T10:57:37;1.13;;;0.70;;
5277;SDS011;2662;51.194;6.614;2024-03-23T11:00:06;1.73;;;0.70;;
5277;SDS011;2662;51.194;6.614;2024-03-23T11:02:36;1.60;;;0.70;;
5277;SDS011;2662;51.194;6.614;2024-03-23T11:05:02;0.93;;;0.73;;
5277;SDS011;2662;51.194;6.614;2024-03-23T11:07:56;0.90;;;0.50;;
5277;SDS011;2662;51.194;6.614;2024-03-23T11:10:26;3.50;;;0.53;;
5277;SDS011;2662;51.194;6.614;2024-03-23T11:12:55;1.07;;;0.60;;
5277;SDS011;2662;51.194;6.614;2024-03-23T11:15:21;3.10;;;0.80;;
5277;SDS011;2662;51.194;6.614;2024-03-23T11:20:37;0.60;;;0.60;;
5277;SDS011;2662;51.194;6.614;2024-03-23T11:23:04;1.20;;;0.70;;
5277;SDS011;2662;51.194;6.614;2024-03-23T11:25:31;0.67;;;0.60;;
5277;SDS011;2662;51.194;6.614;2024-03-23T11:28:10;1.20;;;0.90;;
5277;SDS011;2662;51.194;6.614;2024-03-23T11:30:37;1.77;;;0.80;;
5277;SDS011;2662;51.194;6.614;2024-03-23T11:33:04;1.57;;;0.60;;
5277;SDS011;2662;51.194;6.614;2024-03-23T11:35:31;1.23;;;1.00;;
5277;SDS011;2662;51.194;6.614;2024-03-23T11:38:03;1.10;;;1.00;;
5277;SDS011;2662;51.194;6.614;2024-03-23T11:40:30;0.93;;;0.80;;
5277;SDS011;2662;51.194;6.614;2024-03-23T11:42:59;2.30;;;1.43;;
5277;SDS011;2662;51.194;6.614;2024-03-23T11:45:27;0.93;;;0.80;;
5277;SDS011;2662;51.194;6.614;2024-03-23T11:48:04;0.67;;;0.50;;
5277;SDS011;2662;51.194;6.614;2024-03-23T11:50:31;0.53;;;0.50;;
5277;SDS011;2662;51.194;6.614;2024-03-23T11:55:49;0.40;;;0.40;;
5277;SDS011;2662;51.194;6.614;2024-03-23T11:58:18;1.30;;;0.50;;
5277;SDS011;2662;51.194;6.614;2024-03-23T12:00:55;0.77;;;0.77;;
5277;SDS011;2662;51.194;6.614;2024-03-23T12:03:23;0.97;;;0.80;;
5277;SDS011;2662;51.194;6.614;2024-03-23T12:05:51;4.40;;;0.73;;
5277;SDS011;2662;51.194;6.614;2024-03-23T12:08:23;0.90;;;0.80;;
5277;SDS011;2662;51.194;6.614;2024-03-23T12:10:51;0.93;;;0.70;;
5277;SDS011;2662;51.194;6.614;2024-03-23T12:13:20;2.40;;;0.70;;
5277;SDS011;2662;51.194;6.614;2024-03-23T12:15:49;1.37;;;0.90;;
5277;SDS011;2662;51.194;6.614;2024-03-23T12:18:18;0.70;;;0.70;;
5277;SDS011;2662;51.194;6.614;2024-03-23T12:20:49;0.70;;;0.70;;
5277;SDS011;2662;51.194;6.614;2024-03-23T12:23:16;1.43;;;0.70;;
5277;SDS011;2662;51.194;6.614;2024-03-23T12:25:42;0.60;;;0.60;;
5277;SDS011;2662;51.194;6.614;2024-03-23T12:28:09;1.70;;;0.50;;
5277;SDS011;2662;51.194;6.614;2024-03-23T12:30:35;1.70;;;0.53;;
5277;SDS011;2662;51.194;6.614;2024-03-23T12:33:07;2.10;;;0.83;;
5277;SDS011;2662;51.194;6.614;2024-03-23T12:35:35;0.50;;;0.50;;
5277;SDS011;2662;51.194;6.614;2024-03-23T12:38:01;0.53;;;0.53;;
5277;SDS011;2662;51.194;6.614;2024-03-23T12:40:28;1.27;;;0.60;;
5277;SDS011;2662;51.194;6.614;2024-03-23T12:42:55;0.77;;;0.53;;
5277;SDS011;2662;51.194;6.614;2024-03-23T12:45:21;10.13;;;0.70;;
5277;SDS011;2662;51.194;6.614;2024-03-23T12:47:52;0.87;;;0.60;;
5277;SDS011;2662;51.194;6.614;2024-03-23T12:50:19;0.87;;;0.63;;
5277;SDS011;2662;51.194;6.614;2024-03-23T12:52:47;0.60;;;0.53;;
5277;SDS011;2662;51.194;6.614;2024-03-23T12:55:13;2.10;;;0.80;;
5277;SDS011;2662;51.194;6.614;2024-03-23T12:57:41;0.60;;;0.57;;
5277;SDS011;2662;51.194;6.614;2024-03-23T13:00:07;0.60;;;0.60;;
5277;SDS011;2662;51.194;6.614;2024-03-23T13:02:36;0.50;;;0.50;;
5277;SDS011;2662;51.194;6.614;2024-03-23T13:05:04;1.53;;;0.57;;
5277;SDS011;2662;51.194;6.614;2024-03-23T13:07:33;0.40;;;0.40;;
5277;SDS011;2662;51.194;6.614;2024-03-23T13:10:02;1.83;;;0.40;;
5277;SDS011;2662;51.194;6.614;2024-03-23T13:12:29;0.40;;;0.30;;
5277;SDS011;2662;51.194;6.614;2024-03-23T13:14:56;0.40;;;0.30;;
5277;SDS011;2662;51.194;6.614;2024-03-23T13:17:24;1.17;;;0.50;;
5277;SDS011;2662;51.194;6.614;2024-03-23T13:19:51;0.73;;;0.50;;
5277;SDS011;2662;51.194;6.614;2024-03-23T13:22:21;0.40;;;0.30;;
5277;SDS011;2662;51.194;6.614;2024-03-23T13:24:47;3.93;;;0.40;;
5277;SDS011;2662;51.194;6.614;2024-03-23T13:27:16;0.90;;;0.40;;
5277;SDS011;2662;51.194;6.614;2024-03-23T13:29:43;2.77;;;0.63;;
5277;SDS011;2662;51.194;6.614;2024-03-23T13:32:11;2.90;;;0.60;;
5277;SDS011;2662;51.194;6.614;2024-03-23T13:34:37;1.57;;;0.73;;
5277;SDS011;2662;51.194;6.614;2024-03-23T13:37:05;0.70;;;0.50;;
5277;SDS011;2662;51.194;6.614;2024-03-23T13:39:32;0.63;;;0.63;;
5277;SDS011;2662;51.194;6.614;2024-03-23T13:41:59;1.07;;;0.70;;
5277;SDS011;2662;51.194;6.614;2024-03-23T13:44:26;2.00;;;0.60;;
5277;SDS011;2662;51.194;6.614;2024-03-23T13:46:55;0.50;;;0.50;;
5277;SDS011;2662;51.194;6.614;2024-03-23T13:49:24;1.80;;;0.50;;
5277;SDS011;2662;51.194;6.614;2024-03-23T13:51:52;1.33;;;0.90;;
5277;SDS011;2662;51.194;6.614;2024-03-23T13:54:19;1.30;;;0.60;;
5277;SDS011;2662;51.194;6.614;2024-03-23T13:56:47;2.00;;;0.70;;
5277;SDS011;2662;51.194;6.614;2024-03-23T13:59:14;3.90;;;0.97;;
5277;SDS011;2662;51.194;6.614;2024-03-23T14:01:42;3.03;;;0.87;;
5277;SDS011;2662;51.194;6.614;2024-03-23T14:04:08;1.70;;;0.70;;
5277;SDS011;2662;51.194;6.614;2024-03-23T14:06:36;3.63;;;0.80;;
5277;SDS011;2662;51.194;6.614;2024-03-23T14:09:03;1.77;;;0.70;;
5277;SDS011;2662;51.194;6.614;2024-03-23T14:11:34;2.87;;;0.70;;
5277;SDS011;2662;51.194;6.614;2024-03-23T14:14:00;0.60;;;0.60;;
5277;SDS011;2662;51.194;6.614;2024-03-23T14:16:28;11.53;;;0.87;;
5277;SDS011;2662;51.194;6.614;2024-03-23T14:18:55;1.20;;;0.63;;
5277;SDS011;2662;51.194;6.614;2024-03-23T14:21:23;0.50;;;0.50;;
5277;SDS011;2662;51.194;6.614;2024-03-23T14:23:50;0.80;;;0.80;;
5277;SDS011;2662;51.194;6.614;2024-03-23T14:26:17;0.47;;;0.47;;
5277;SDS011;2662;51.194;6.614;2024-03-23T14:28:44;0.90;;;0.40;;
5277;SDS011;2662;51.194;6.614;2024-03-23T14:31:11;0.77;;;0.77;;
5277;SDS011;2662;51.194;6.614;2024-03-23T14:33:37;0.50;;;0.50;;
5277;SDS011;2662;51.194;6.614;2024-03-23T14:36:08;2.10;;;0.67;;
5277;SDS011;2662;51.194;6.614;2024-03-23T14:38:34;0.50;;;0.47;;
5277;SDS011;2662;51.194;6.614;2024-03-23T14:41:01;0.50;;;0.50;;
5277;SDS011;2662;51.194;6.614;2024-03-23T14:43:28;1.90;;;0.50;;
5277;SDS011;2662;51.194;6.614;2024-03-23T14:46:07;1.80;;;0.70;;
5277;SDS011;2662;51.194;6.614;2024-03-23T14:48:34;1.80;;;0.63;;
5277;SDS011;2662;51.194;6.614;2024-03-23T14:51:02;1.57;;;1.10;;
5277;SDS011;2662;51.194;6.614;2024-03-23T14:53:31;1.03;;;0.60;;
5277;SDS011;2662;51.194;6.614;2024-03-23T14:55:58;1.33;;;0.50;;
5277;SDS011;2662;51.194;6.614;2024-03-23T14:58:25;0.50;;;0.50;;
5277;SDS011;2662;51.194;6.614;2024-03-23T15:00:53;1.13;;;0.50;;
5277;SDS011;2662;51.194;6.614;2024-03-23T15:03:24;1.07;;;0.60;;
5277;SDS011;2662;51.194;6.614;2024-03-23T15:05:53;0.57;;;0.57;;
5277;SDS011;2662;51.194;6.614;2024-03-23T15:08:20;0.67;;;0.67;;
5277;SDS011;2662;51.194;6.614;2024-03-23T15:10:49;1.20;;;0.60;;
5277;SDS011;2662;51.194;6.614;2024-03-23T15:13:15;0.87;;;0.50;;
5277;SDS011;2662;51.194;6.614;2024-03-23T15:15:42;1.60;;;0.70;;
5277;SDS011;2662;51.194;6.614;2024-03-23T15:18:09;1.73;;;0.63;;
5277;SDS011;2662;51.194;6.614;2024-03-23T15:20:37;0.90;;;0.70;;
5277;SDS011;2662;51.194;6.614;2024-03-23T15:23:04;4.83;;;0.70;;
5277;SDS011;2662;51.194;6.614;2024-03-23T15:25:31;0.90;;;0.60;;
5277;SDS011;2662;51.194;6.614;2024-03-23T15:27:58;1.17;;;0.67;;
5277;SDS011;2662;51.194;6.614;2024-03-23T15:30:25;5.00;;;1.70;;
5277;SDS011;2662;51.194;6.614;2024-03-23T15:32:53;7.60;;;2.50;;
5277;SDS011;2662;51.194;6.614;2024-03-23T15:35:20;2.30;;;1.70;;
5277;SDS011;2662;51.194;6.614;2024-03-23T15:37:48;2.77;;;0.80;;
5277;SDS011;2662;51.194;6.614;2024-03-23T15:40:15;1.37;;;0.60;;
5277;SDS011;2662;51.194;6.614;2024-03-23T15:42:41;0.70;;;0.60;;
5277;SDS011;2662;51.194;6.614;2024-03-23T15:45:09;1.10;;;0.60;;
5277;SDS011;2662;51.194;6.614;2024-03-23T15:47:36;1.87;;;0.73;;
5277;SDS011;2662;51.194;6.614;2024-03-23T15:50:03;2.67;;;0.70;;
5277;SDS011;2662;51.194;6.614;2024-03-23T15:52:33;1.00;;;0.60;;
5277;SDS011;2662;51.194;6.614;2024-03-23T15:55:01;1.43;;;0.60;;
5277;SDS011;2662;51.194;6.614;2024-03-23T15:57:31;0.50;;;0.50;;
5277;SDS011;2662;51.194;6.614;2024-03-23T15:59:58;2.20;;;0.70;;
5277;SDS011;2662;51.194;6.614;2024-03-23T16:02:26;4.30;;;0.70;;
5277;SDS011;2662;51.194;6.614;2024-03-23T16:04:53;0.50;;;0.50;;
5277;SDS011;2662;51.194;6.614;2024-03-23T16:07:19;0.70;;;0.67;;
5277;SDS011;2662;51.194;6.614;2024-03-23T16:09:47;0.70;;;0.50;;
5277;SDS011;2662;51.194;6.614;2024-03-23T16:12:13;0.67;;;0.67;;
5277;SDS011;2662;51.194;6.614;2024-03-23T16:14:40;3.13;;;0.67;;
5277;SDS011;2662;51.194;6.614;2024-03-23T16:17:06;0.43;;;0.40;;